Time;durP1;ratioP1;P1;durP2;ratioP2;P2;SDS_P1;SDS_P2;PMS_P1;PMS_P2;Temp;Humidity;BMP_temperature;BMP_pressure;BME280_temperature;BME280_humidity;BME280_pressure;Samples;Min_cycle;Max_cycle;Signal;HPM_P1;HPM_P2
2022/03/19 00:00:15;;;;;;;;;;;;;;;21.46;24.30;103432.03;102066;1337;61945;-83
2022/03/19 00:03:08;;;;;;;;;;;;;;;21.46;24.29;103431.66;102042;1336;73699;-86
2022/03/19 00:05:50;;;;;;;;;;;;;;;21.46;24.34;103433.99;102087;1337;76524;-84
2022/03/19 00:08:28;;;;;;;;;;;;;;;;;;;;;
2022/03/19 00:11:11;;;;;;;;;;;;;;;21.46;24.30;103423.25;102082;1337;62328;-84
2022/03/19 00:13:46;;;;;;;;;;;;;;;21.46;24.31;103424.16;102085;1337;72940;-84
2022/03/19 00:16:12;;;;;;;;;;;;;;;21.47;24.27;103423.77;102055;1335;75671;-83
2022/03/19 00:19:00;;;;;;;;;;;;;;;21.46;24.37;103425.39;102066;1337;62341;-85
2022/03/19 00:21:57;;;;;;;;;;;;;;;;;;;;;
2022/03/19 00:24:31;;;;;;;;;;;;;;;21.47;24.34;103414.82;101985;1335;73011;-85
2022/03/19 00:27:10;;;;;;;;;;;;;;;21.47;24.38;103409.97;102142;1334;75615;-85
2022/03/19 00:29:49;;;;;;;;;;;;;;;;;;;;;
2022/03/19 00:32:30;;;;;;;;;;;;;;;21.47;24.28;103404.95;102143;1334;62134;-84
2022/03/19 00:35:04;;;;;;;;;;;;;;;21.47;24.44;103406.03;102159;1335;74010;-86
2022/03/19 00:37:48;;;;;;;;;;;;;;;21.47;24.37;103404.42;102123;1334;75705;-82
2022/03/19 00:40:26;;;;;;;;;;;;;;;21.46;24.41;103403.53;102200;1333;62299;-82
2022/03/19 00:42:52;;;;;;;;;;;;;;;21.47;24.36;103397.62;102132;1334;62028;-87
2022/03/19 00:45:32;;;;;;;;;;;;;;;;;;;;;
2022/03/19 00:48:09;;;;;;;;;;;;;;;21.46;24.39;103394.41;101944;1334;76766;-83
2022/03/19 00:50:46;;;;;;;;;;;;;;;21.47;24.40;103396.88;102234;1334;62266;-82
2022/03/19 00:53:20;;;;;;;;;;;;;;;21.46;24.40;103396.55;102274;1335;62142;-85
2022/03/19 00:55:57;;;;;;;;;;;;;;;21.46;24.37;103394.22;102301;1334;72897;-84
2022/03/19 00:58:54;;;;;;;;;;;;;;;21.46;24.39;103394.77;102342;1335;74431;-83
2022/03/19 01:01:35;;;;;;;;;;;;;;;21.47;24.43;103397.61;102327;1335;62045;-86
2022/03/19 01:04:03;;;;;;;;;;;;;;;21.47;24.41;103396.17;102494;1329;62142;-84
2022/03/19 01:06:47;;;;;;;;;;;;;;;21.47;24.40;103393.67;102600;1329;73956;-82
2022/03/19 01:09:18;;;;;;;;;;;;;;;21.47;24.43;103394.55;102568;1329;75674;-84
2022/03/19 01:11:50;;;;;;;;;;;;;;;21.47;24.48;103395.09;102574;1329;61893;-85
2022/03/19 01:14:28;;;;;;;;;;;;;;;;;;;;;
2022/03/19 01:17:10;;;;;;;;;;;;;;;;;;;;;
2022/03/19 01:19:57;;;;;;;;;;;;;;;21.47;24.47;103388.83;102737;1328;75661;-81
2022/03/19 01:22:28;;;;;;;;;;;;;;;21.47;24.43;103390.06;102739;1329;62069;-84
2022/03/19 01:25:03;;;;;;;;;;;;;;;21.47;24.39;103387.39;102601;1329;62059;-81
2022/03/19 01:27:52;;;;;;;;;;;;;;;21.47;24.43;103390.07;102709;1329;73071;-82
2022/03/19 01:30:26;;;;;;;;;;;;;;;21.47;24.44;103383.45;102771;1329;76666;-82
2022/03/19 01:33:07;;;;;;;;;;;;;;;;;;;;;
2022/03/19 01:35:33;;;;;;;;;;;;;;;21.47;24.55;103382.35;102628;1328;62158;-83
2022/03/19 01:38:04;;;;;;;;;;;;;;;21.47;24.41;103385.24;102593;1329;73926;-86
2022/03/19 01:40:53;;;;;;;;;;;;;;;21.47;24.56;103385.77;102547;1328;74358;-85
2022/03/19 01:43:19;;;;;;;;;;;;;;;21.47;24.44;103384.34;102563;1329;62049;-85
2022/03/19 01:46:02;;;;;;;;;;;;;;;21.47;24.54;103384.31;102564;1331;62185;-87
2022/03/19 01:48:48;;;;;;;;;;;;;;;21.48;24.53;103383.95;102379;1332;71561;-87
2022/03/19 01:51:37;;;;;;;;;;;;;;;21.48;24.47;103385.02;102521;1332;75692;-84
2022/03/19 01:54:22;;;;;;;;;;;;;;;21.48;24.52;103379.81;102558;1332;62703;-79
2022/03/19 01:56:48;;;;;;;;;;;;;;;21.48;24.51;103381.61;101953;1338;61990;-86
2022/03/19 01:59:27;;;;;;;;;;;;;;;21.48;24.46;103378.58;102063;1338;72887;-83
2022/03/19 02:02:05;;;;;;;;;;;;;;;21.48;24.50;103377.14;102210;1338;75729;-83
2022/03/19 02:04:41;;;;;;;;;;;;;;;21.48;24.49;103376.60;101927;1338;62032;-84
2022/03/19 02:07:22;;;;;;;;;;;;;;;21.49;24.53;103383.02;101898;1338;62296;-87
2022/03/19 02:10:09;;;;;;;;;;;;;;;21.48;24.55;103382.15;101967;1338;73034;-85
2022/03/19 02:13:02;;;;;;;;;;;;;;;;;;;;;
2022/03/19 02:15:41;;;;;;;;;;;;;;;21.49;24.55;103384.48;101920;1338;62142;-85
2022/03/19 02:18:36;;;;;;;;;;;;;;;21.49;24.67;103386.27;101837;1341;62251;-83
2022/03/19 02:21:08;;;;;;;;;;;;;;;21.49;24.59;103382.50;101932;1338;73908;-81
2022/03/19 02:26:57;;;;;;;;;;;;;;;21.49;24.60;103385.16;102082;1337;62185;-84
2022/03/19 02:29:39;;;;;;;;;;;;;;;21.49;24.60;103382.30;102151;1335;62008;-84
2022/03/19 02:32:19;;;;;;;;;;;;;;;21.50;24.62;103382.48;102100;1334;73947;-85
2022/03/19 02:35:13;;;;;;;;;;;;;;;21.50;24.57;103382.64;102620;1329;75559;-83
2022/03/19 02:37:51;;;;;;;;;;;;;;;21.50;24.53;103381.73;102747;1329;62123;-87
2022/03/19 02:40:20;;;;;;;;;;;;;;;21.49;24.54;103381.40;102755;1329;61988;-84
2022/03/19 02:43:22;;;;;;;;;;;;;;;;;;;;;
2022/03/19 02:46:10;;;;;;;;;;;;;;;21.49;24.47;103377.63;102727;1328;75669;-86
2022/03/19 02:48:44;;;;;;;;;;;;;;;21.49;24.53;103375.30;102739;1329;62037;-85
2022/03/19 02:51:31;;;;;;;;;;;;;;;;;;;;;
2022/03/19 02:54:09;;;;;;;;;;;;;;;21.49;24.61;103381.60;102765;1329;72757;-86
2022/03/19 02:56:38;;;;;;;;;;;;;;;21.50;24.62;103381.02;102780;1328;75168;-84
2022/03/19 02:59:34;;;;;;;;;;;;;;;21.49;24.57;103380.88;102657;1328;62027;-87
2022/03/19 03:02:11;;;;;;;;;;;;;;;21.49;24.59;103378.19;102721;1329;62001;-84
2022/03/19 03:04:39;;;;;;;;;;;;;;;21.50;24.53;103379.77;102784;1329;71993;-84
2022/03/19 03:07:18;;;;;;;;;;;;;;;21.50;24.54;103380.30;102745;1329;62061;-84
2022/03/19 03:09:58;;;;;;;;;;;;;;;21.49;24.53;103380.88;102767;1329;62567;-84
2022/03/19 03:12:47;;;;;;;;;;;;;;;21.49;24.60;103384.44;102688;1328;62241;-84
2022/03/19 03:15:21;;;;;;;;;;;;;;;21.49;24.57;103380.52;102732;1323;74134;-84
2022/03/19 03:18:06;;;;;;;;;;;;;;;21.50;24.60;103382.11;103379;1320;75618;-84
2022/03/19 03:20:35;;;;;;;;;;;;;;;21.50;24.60;103383.35;103194;1321;62004;-81
2022/03/19 03:23:22;;;;;;;;;;;;;;;21.50;24.49;103380.66;103178;1322;62061;-82
2022/03/19 03:25:59;;;;;;;;;;;;;;;21.50;24.61;103375.48;103204;1319;74058;-84
2022/03/19 03:28:34;;;;;;;;;;;;;;;21.50;24.58;103377.61;103382;1320;76854;-84
2022/03/19 03:31:16;;;;;;;;;;;;;;;21.50;24.64;103370.81;103329;1320;62130;-80
2022/03/19 03:33:45;;;;;;;;;;;;;;;21.50;24.61;103371.16;103388;1320;62043;-86
2022/03/19 03:36:20;;;;;;;;;;;;;;;21.50;24.57;103372.06;103312;1320;73164;-82
2022/03/19 03:38:51;;;;;;;;;;;;;;;21.50;24.57;103375.30;103074;1322;75613;-84
2022/03/19 03:41:54;;;;;;;;;;;;;;;21.50;24.61;103373.14;103405;1320;62096;-83
2022/03/19 03:44:26;;;;;;;;;;;;;;;21.50;24.59;103374.56;103155;1322;62030;-84
2022/03/19 03:47:00;;;;;;;;;;;;;;;21.49;24.58;103372.80;103354;1320;74056;-83
2022/03/19 03:49:26;;;;;;;;;;;;;;;21.50;24.65;103378.14;103402;1320;76491;-85
2022/03/19 03:52:12;;;;;;;;;;;;;;;21.50;24.62;103376.73;103218;1322;62134;-85
2022/03/19 03:54:40;;;;;;;;;;;;;;;21.50;24.58;103381.02;103186;1322;62673;-88
2022/03/19 03:57:15;;;;;;;;;;;;;;;21.50;24.67;103382.09;103283;1322;73927;-81
2022/03/19 03:59:41;;;;;;;;;;;;;;;21.50;24.59;103379.23;103148;1322;75728;-85
2022/03/19 04:02:20;;;;;;;;;;;;;;;;;;;;;
2022/03/19 04:05:15;;;;;;;;;;;;;;;21.50;24.58;103378.52;103112;1322;62087;-81
2022/03/19 04:07:55;;;;;;;;;;;;;;;21.50;24.59;103375.83;103102;1323;72885;-82
2022/03/19 04:10:26;;;;;;;;;;;;;;;21.50;24.60;103379.75;103296;1321;75634;-85
2022/03/19 04:12:59;;;;;;;;;;;;;;;21.49;24.61;103379.25;103295;1322;62029;-84
2022/03/19 04:15:28;;;;;;;;;;;;;;;21.50;24.64;103381.02;103194;1322;61994;-82
2022/03/19 04:18:05;;;;;;;;;;;;;;;;;;;;;
2022/03/19 04:20:47;;;;;;;;;;;;;;;21.51;24.65;103384.77;103204;1322;76563;-86
2022/03/19 04:23:13;;;;;;;;;;;;;;;21.51;24.60;103388.89;103292;1322;62558;-85
2022/03/19 04:25:47;;;;;;;;;;;;;;;21.51;24.62;103388.16;103152;1323;62094;-83
2022/03/19 04:28:19;;;;;;;;;;;;;;;21.51;24.59;103389.95;103173;1321;72550;-82
2022/03/19 04:30:56;;;;;;;;;;;;;;;21.51;24.66;103393.01;103180;1322;76450;-83
2022/03/19 04:33:39;;;;;;;;;;;;;;;;;;;;;
2022/03/19 04:38:55;;;;;;;;;;;;;;;21.51;24.64;103394.98;103194;1323;72824;-86
2022/03/19 04:41:38;;;;;;;;;;;;;;;21.51;24.53;103397.67;103299;1323;75507;-82
2022/03/19 04:44:15;;;;;;;;;;;;;;;21.51;24.63;103395.68;103096;1323;62133;-90
2022/03/19 04:46:53;;;;;;;;;;;;;;;21.51;24.58;103396.41;103168;1322;62083;-84
2022/03/19 04:49:22;;;;;;;;;;;;;;;21.52;24.59;103398.71;103172;1322;72618;-83
2022/03/19 04:52:08;;;;;;;;;;;;;;;21.52;24.62;103400.84;103142;1323;74978;-82
2022/03/19 04:54:43;;;;;;;;;;;;;;;21.52;24.59;103406.02;103174;1322;59757;-82
2022/03/19 04:57:13;;;;;;;;;;;;;;;21.53;24.62;103407.83;103220;1322;62021;-83
2022/03/19 04:59:41;;;;;;;;;;;;;;;21.53;24.64;103406.75;103144;1322;73269;-85
2022/03/19 05:02:12;;;;;;;;;;;;;;;21.53;24.64;103404.95;103197;1322;76457;-82
2022/03/19 05:04:48;;;;;;;;;;;;;;;;;;;;;
2022/03/19 05:07:28;;;;;;;;;;;;;;;21.54;24.65;103406.17;103234;1322;62209;-79
2022/03/19 05:13:17;;;;;;;;;;;;;;;;;;;;;
2022/03/19 05:16:09;;;;;;;;;;;;;;;21.55;24.64;103421.93;103282;1323;62136;-84
2022/03/19 05:18:57;;;;;;;;;;;;;;;21.55;24.57;103425.33;103192;1323;62088;-84
2022/03/19 05:21:32;;;;;;;;;;;;;;;21.55;24.56;103424.07;103055;1323;72925;-84
2022/03/19 05:24:10;;;;;;;;;;;;;;;21.56;24.53;103430.70;103213;1322;75729;-83
2022/03/19 05:26:43;;;;;;;;;;;;;;;21.56;24.55;103435.15;103217;1322;62030;-85
2022/03/19 05:29:23;;;;;;;;;;;;;;;21.56;24.62;103439.27;103162;1322;62245;-87
2022/03/19 05:32:07;;;;;;;;;;;;;;;;;;;;;
2022/03/19 05:34:45;;;;;;;;;;;;;;;21.57;24.60;103437.27;103286;1323;75500;-83
2022/03/19 05:37:21;;;;;;;;;;;;;;;21.57;24.63;103439.05;103221;1322;62113;-87
2022/03/19 05:39:59;;;;;;;;;;;;;;;21.57;24.54;103443.17;103118;1323;62025;-82
2022/03/19 05:42:30;;;;;;;;;;;;;;;21.58;24.59;103442.81;103183;1322;72796;-82
2022/03/19 05:45:04;;;;;;;;;;;;;;;21.58;24.58;103448.52;103142;1323;76701;-84
2022/03/19 05:47:44;;;;;;;;;;;;;;;21.59;24.59;103451.90;103152;1322;61978;-85
2022/03/19 05:50:15;;;;;;;;;;;;;;;21.59;24.57;103453.89;103127;1323;62054;-85
2022/03/19 05:52:51;;;;;;;;;;;;;;;21.58;24.52;103450.14;103378;1320;72743;-82
2022/03/19 05:55:26;;;;;;;;;;;;;;;21.58;24.59;103454.60;103334;1320;75495;-83
2022/03/19 05:57:57;;;;;;;;;;;;;;;21.58;24.55;103452.65;103305;1322;62004;-87
2022/03/19 06:00:25;;;;;;;;;;;;;;;21.59;24.53;103455.67;103220;1323;62288;-84
2022/03/19 06:03:02;;;;;;;;;;;;;;;21.59;24.56;103457.46;103248;1320;72806;-84
2022/03/19 06:05:31;;;;;;;;;;;;;;;21.58;24.56;103456.77;103378;1320;75907;-84
2022/03/19 06:08:29;;;;;;;;;;;;;;;;;;;;;
2022/03/19 06:11:04;;;;;;;;;;;;;;;21.58;24.59;103461.41;102616;1329;62266;-84
2022/03/19 06:13:35;;;;;;;;;;;;;;;21.58;24.55;103462.13;102660;1329;73966;-86
2022/03/19 06:16:25;;;;;;;;;;;;;;;21.59;24.55;103461.23;102618;1329;75803;-82
2022/03/19 06:19:02;;;;;;;;;;;;;;;21.59;24.45;103462.13;102518;1329;62208;-83
2022/03/19 06:21:46;;;;;;;;;;;;;;;21.59;24.53;103462.48;102779;1329;62101;-84
2022/03/19 06:24:24;;;;;;;;;;;;;;;21.58;24.56;103460.71;102738;1329;73762;-82
2022/03/19 06:26:53;;;;;;;;;;;;;;;21.59;24.54;103463.02;102740;1329;75709;-82
2022/03/19 06:29:30;;;;;;;;;;;;;;;21.59;24.47;103466.79;102691;1329;62044;-83
2022/03/19 06:32:17;;;;;;;;;;;;;;;21.61;24.70;103469.04;104199;1310;599506;-85
2022/03/19 06:35:02;;;;;;;;;;;;;;;21.59;24.56;103466.94;104385;1312;72364;-85
2022/03/19 06:37:34;;;;;;;;;;;;;;;21.59;24.56;103468.19;104399;1312;60369;-84
2022/03/19 06:40:25;;;;;;;;;;;;;;;21.60;24.60;103469.79;104399;1312;61711;-84
2022/03/19 06:43:05;;;;;;;;;;;;;;;21.60;24.57;103467.25;104460;1312;72783;-83
2022/03/19 06:45:41;;;;;;;;;;;;;;;21.61;24.64;103472.61;104196;1309;307763;-85
2022/03/19 06:48:12;;;;;;;;;;;;;;;21.61;24.57;103471.00;104583;1308;60880;-84
2022/03/19 06:50:56;;;;;;;;;;;;;;;;;;;;;
2022/03/19 06:53:44;;;;;;;;;;;;;;;21.62;24.40;103475.81;104509;1309;74317;-85
2022/03/19 06:56:15;;;;;;;;;;;;;;;21.64;24.56;103481.15;104545;1309;72499;-83
2022/03/19 06:58:44;;;;;;;;;;;;;;;21.64;24.51;103479.35;104683;1308;60230;-87
2022/03/19 07:01:36;;;;;;;;;;;;;;;21.65;24.52;103477.72;104489;1306;61430;-83
2022/03/19 07:04:02;;;;;;;;;;;;;;;21.66;24.63;103482.33;104702;1309;72771;-84
2022/03/19 07:06:46;;;;;;;;;;;;;;;21.67;24.43;103484.44;104601;1309;74113;-83
2022/03/19 07:09:12;;;;;;;;;;;;;;;21.68;24.35;103484.23;104710;1309;60372;-82
2022/03/19 07:11:51;;;;;;;;;;;;;;;21.69;24.47;103483.69;104559;1309;60879;-82
2022/03/19 07:14:18;;;;;;;;;;;;;;;21.69;24.38;103482.59;104479;1309;71581;-83
2022/03/19 07:16:55;;;;;;;;;;;;;;;21.70;24.42;103486.69;104661;1309;74208;-84
2022/03/19 07:19:50;;;;;;;;;;;;;;;21.71;24.59;103485.58;104724;1309;59681;-88
2022/03/19 07:25:05;;;;;;;;;;;;;;;21.72;24.40;103488.41;104811;1306;72926;-85
2022/03/19 07:27:36;;;;;;;;;;;;;;;21.72;24.52;103487.50;104914;1306;59688;-84
2022/03/19 07:30:11;;;;;;;;;;;;;;;21.73;24.45;103490.89;104703;1306;59593;-82
2022/03/19 07:32:48;;;;;;;;;;;;;;;21.74;24.37;103502.51;104633;1306;60555;-84
2022/03/19 07:35:34;;;;;;;;;;;;;;;21.74;24.44;103502.14;104770;1305;71833;-87
2022/03/19 07:38:16;;;;;;;;;;;;;;;21.74;24.14;103496.58;104734;1306;73232;-85
2022/03/19 07:43:49;;;;;;;;;;;;;;;21.75;24.35;103500.51;104749;1306;61688;-84
2022/03/19 07:46:24;;;;;;;;;;;;;;;21.75;24.34;103502.64;104834;1306;72901;-84
2022/03/19 07:49:00;;;;;;;;;;;;;;;21.76;24.42;103498.52;104864;1306;73471;-80
2022/03/19 07:51:54;;;;;;;;;;;;;;;21.76;24.45;103501.55;104784;1305;59750;-81
2022/03/19 07:54:54;;;;;;;;;;;;;;;21.77;24.45;103507.45;104859;1306;60340;-84
2022/03/19 07:57:28;;;;;;;;;;;;;;;21.77;24.33;103505.83;104911;1306;71708;-85
2022/03/19 08:00:16;;;;;;;;;;;;;;;21.78;24.42;103504.92;104853;1306;72987;-85
2022/03/19 08:02:46;;;;;;;;;;;;;;;21.78;24.43;103514.75;104889;1306;60240;-90
2022/03/19 08:05:52;;;;;;;;;;;;;;;21.79;24.32;103511.15;104890;1305;60038;-85
2022/03/19 08:08:27;;;;;;;;;;;;;;;21.79;24.32;103508.81;104903;1306;73886;-82
2022/03/19 08:10:53;;;;;;;;;;;;;;;21.81;24.36;103507.67;104861;1306;74054;-82
2022/03/19 08:13:31;;;;;;;;;;;;;;;21.81;24.24;103507.84;104673;1306;60795;-84
2022/03/19 08:16:07;;;;;;;;;;;;;;;21.82;24.08;103505.50;104814;1306;60473;-86
2022/03/19 08:18:53;;;;;;;;;;;;;;;21.82;24.36;103507.83;104758;1306;72714;-84
2022/03/19 08:21:27;;;;;;;;;;;;;;;21.82;24.25;103509.08;104901;1306;73196;-84
2022/03/19 08:24:01;;;;;;;;;;;;;;;21.82;24.23;103498.50;104728;1306;60099;-84
2022/03/19 08:26:54;;;;;;;;;;;;;;;;;;;;;
2022/03/19 08:29:33;;;;;;;;;;;;;;;21.82;24.26;103500.11;104764;1306;71812;-84
2022/03/19 08:32:08;;;;;;;;;;;;;;;21.82;24.26;103502.99;104896;1306;73075;-83
2022/03/19 08:34:45;;;;;;;;;;;;;;;21.82;24.31;103500.09;104874;1306;60135;-84
2022/03/19 08:37:26;;;;;;;;;;;;;;;21.83;24.15;103508.33;104895;1306;61194;-85
2022/03/19 08:40:17;;;;;;;;;;;;;;;21.83;24.26;103500.25;104645;1306;71727;-79
2022/03/19 08:43:11;;;;;;;;;;;;;;;21.83;24.11;103499.36;104889;1306;74655;-83
2022/03/19 08:45:58;;;;;;;;;;;;;;;;;;;;;
2022/03/19 08:48:53;;;;;;;;;;;;;;;21.84;23.97;103496.64;104453;1312;60488;-85
2022/03/19 08:51:42;;;;;;;;;;;;;;;21.83;24.16;103495.58;104419;1312;71951;-85
2022/03/19 08:54:47;;;;;;;;;;;;;;;21.83;24.14;103486.43;103767;1319;71959;-88
2022/03/19 08:57:20;;;;;;;;;;;;;;;21.84;24.41;103491.80;103652;1319;60287;-85
2022/03/19 08:59:53;;;;;;;;;;;;;;;21.83;24.27;103493.95;103648;1319;60507;-86
2022/03/19 09:02:34;;;;;;;;;;;;;;;21.83;24.13;103493.97;103559;1321;59716;-85
2022/03/19 09:05:09;;;;;;;;;;;;;;;21.83;24.03;103491.99;103665;1319;74820;-79
2022/03/19 09:08:00;;;;;;;;;;;;;;;21.84;24.27;103498.06;103594;1319;60260;-86
2022/03/19 09:10:34;;;;;;;;;;;;;;;21.84;24.18;103497.37;103624;1319;60470;-83
2022/03/19 09:13:43;;;;;;;;;;;;;;;21.83;24.12;103502.92;103626;1319;76770;-83
2022/03/19 09:16:44;;;;;;;;;;;;;;;;;;;;;
2022/03/19 09:19:33;;;;;;;;;;;;;;;21.82;24.31;103492.20;103678;1319;60186;-83
2022/03/19 09:22:01;;;;;;;;;;;;;;;21.84;24.33;103494.86;103461;1320;61608;-86
2022/03/19 09:24:29;;;;;;;;;;;;;;;21.83;24.25;103495.23;104277;1315;72926;-83
2022/03/19 09:27:19;;;;;;;;;;;;;;;;;;;;;
2022/03/19 09:30:08;;;;;;;;;;;;;;;21.83;24.12;103495.06;104307;1315;60274;-82
2022/03/19 09:32:42;;;;;;;;;;;;;;;21.82;24.10;103498.13;104003;1313;60527;-85
2022/03/19 09:35:12;;;;;;;;;;;;;;;21.83;24.29;103495.08;104355;1312;72704;-89
2022/03/19 09:37:56;;;;;;;;;;;;;;;21.83;24.02;103497.95;104330;1312;74013;-86
2022/03/19 09:40:31;;;;;;;;;;;;;;;21.82;24.09;103496.33;104436;1312;61084;-86
2022/03/19 09:43:29;;;;;;;;;;;;;;;;;;;;;
2022/03/19 09:46:18;;;;;;;;;;;;;;;21.81;24.26;103482.20;104094;1316;72818;-83
2022/03/19 09:48:53;;;;;;;;;;;;;;;21.81;24.04;103478.26;104269;1315;72535;-89
2022/03/19 09:51:43;;;;;;;;;;;;;;;;;;;;;
2022/03/19 09:54:21;;;;;;;;;;;;;;;21.81;24.07;103469.13;104257;1315;60526;-82
2022/03/19 09:57:02;;;;;;;;;;;;;;;21.83;23.92;103469.61;104273;1315;71691;-85
2022/03/19 10:00:10;;;;;;;;;;;;;;;21.82;24.06;103470.51;104183;1315;74301;-81
2022/03/19 10:03:22;;;;;;;;;;;;;;;;;;;;;
2022/03/19 10:08:55;;;;;;;;;;;;;;;21.83;24.21;103475.17;103213;1321;74092;-82
2022/03/19 10:11:21;;;;;;;;;;;;;;;21.83;24.19;103471.59;104215;1313;76064;-86
2022/03/19 10:13:55;;;;;;;;;;;;;;;21.83;24.15;103474.81;104250;1313;60786;-81
2022/03/19 10:20:09;;;;;;;;;;;;;;;21.82;23.96;103474.11;103451;1319;74137;-85
2022/03/19 10:23:02;;;;;;;;;;;;;;;21.82;24.09;103470.34;103538;1319;73899;-83
2022/03/19 10:25:58;;;;;;;;;;;;;;;21.82;24.03;103461.75;102765;1326;60079;-84
2022/03/19 10:28:44;;;;;;;;;;;;;;;21.82;24.04;103454.75;102762;1323;60337;-82
2022/03/19 10:31:56;;;;;;;;;;;;;;;21.82;24.00;103454.56;102741;1323;71601;-82
2022/03/19 10:34:30;;;;;;;;;;;;;;;21.83;23.91;103457.77;102772;1326;73036;-87
2022/03/19 10:37:37;;;;;;;;;;;;;;;21.83;24.01;103453.84;102811;1325;59725;-84
2022/03/19 10:40:43;;;;;;;;;;;;;;;21.83;24.01;103451.50;102555;1329;60916;-82
2022/03/19 10:43:27;;;;;;;;;;;;;;;21.83;24.01;103445.77;102673;1329;73795;-79
2022/03/19 10:46:09;;;;;;;;;;;;;;;21.83;24.01;103439.48;102681;1329;74183;-83
2022/03/19 10:49:02;;;;;;;;;;;;;;;21.83;23.94;103430.34;102568;1332;60332;-87
2022/03/19 10:51:52;;;;;;;;;;;;;;;21.83;24.02;103431.92;102581;1332;59739;-83
2022/03/19 10:54:35;;;;;;;;;;;;;;;21.84;24.05;103424.77;102618;1329;72867;-83
2022/03/19 10:57:16;;;;;;;;;;;;;;;21.84;24.14;103420.62;102964;1322;74427;-84
2022/03/19 11:00:13;;;;;;;;;;;;;;;21.85;24.00;103428.67;103206;1322;60254;-82
2022/03/19 11:02:40;;;;;;;;;;;;;;;21.86;24.06;103428.98;103439;1314;59795;-82
2022/03/19 11:05:15;;;;;;;;;;;;;;;21.86;24.16;103416.98;104082;1315;73871;-82
2022/03/19 11:07:48;;;;;;;;;;;;;;;21.86;23.97;103410.33;104101;1314;73843;-80
2022/03/19 11:10:33;;;;;;;;;;;;;;;21.87;24.15;103411.02;104152;1315;61658;-84
2022/03/19 11:13:04;;;;;;;;;;;;;;;21.87;24.07;103404.38;104124;1316;60364;-82
2022/03/19 11:15:37;;;;;;;;;;;;;;;21.88;24.08;103400.94;104184;1314;72700;-82
2022/03/19 11:18:33;;;;;;;;;;;;;;;21.88;24.05;103401.30;104356;1307;73940;-81
2022/03/19 11:20:59;;;;;;;;;;;;;;;21.89;24.01;103396.63;104470;1306;60352;-81
2022/03/19 11:23:28;;;;;;;;;;;;;;;21.88;24.04;103403.09;104339;1307;61571;-81
2022/03/19 11:25:57;;;;;;;;;;;;;;;21.89;24.20;103404.52;104353;1309;74894;-81
2022/03/19 11:28:30;;;;;;;;;;;;;;;21.88;24.15;103397.16;104586;1306;74221;-82
2022/03/19 11:31:22;;;;;;;;;;;;;;;21.89;24.12;103383.68;104652;1306;61219;-82
2022/03/19 11:33:51;;;;;;;;;;;;;;;21.90;24.18;103385.28;104616;1306;60417;-82
2022/03/19 11:36:21;;;;;;;;;;;;;;;21.90;24.24;103388.85;104634;1306;73207;-86
2022/03/19 11:38:53;;;;;;;;;;;;;;;21.91;24.20;103386.67;104620;1309;74950;-82
2022/03/19 11:41:32;;;;;;;;;;;;;;;21.92;24.03;103388.80;104494;1306;60389;-81
2022/03/19 11:44:19;;;;;;;;;;;;;;;21.92;24.30;103386.45;104562;1306;61309;-81
2022/03/19 11:47:22;;;;;;;;;;;;;;;21.93;24.12;103380.71;104587;1306;74026;-83
2022/03/19 11:49:52;;;;;;;;;;;;;;;21.93;24.22;103382.85;104737;1306;74878;-83
2022/03/19 11:52:20;;;;;;;;;;;;;;;21.93;24.36;103375.33;104676;1306;60518;-87
2022/03/19 11:55:22;;;;;;;;;;;;;;;21.93;24.08;103377.64;104707;1306;61724;-82
2022/03/19 11:57:55;;;;;;;;;;;;;;;21.94;24.17;103376.72;104788;1305;73779;-88
2022/03/19 12:00:24;;;;;;;;;;;;;;;21.94;24.16;103377.98;104650;1306;73799;-81
2022/03/19 12:03:26;;;;;;;;;;;;;;;21.94;24.19;103373.86;104699;1306;60622;-84
2022/03/19 12:06:19;;;;;;;;;;;;;;;21.94;24.24;103368.83;104230;1315;60528;-86
2022/03/19 12:08:50;;;;;;;;;;;;;;;21.95;24.19;103368.29;104209;1314;73849;-83
2022/03/19 12:11:39;;;;;;;;;;;;;;;21.95;24.40;103367.55;104242;1315;73981;-82
2022/03/19 12:14:17;;;;;;;;;;;;;;;21.94;24.24;103368.30;103204;1323;61263;-84
2022/03/19 12:16:45;;;;;;;;;;;;;;;21.95;24.20;103364.32;103189;1323;61677;-86
2022/03/19 12:19:13;;;;;;;;;;;;;;;21.95;24.12;103367.38;103251;1322;73894;-85
2022/03/19 12:22:00;;;;;;;;;;;;;;;21.95;24.20;103378.32;103365;1323;74152;-81
2022/03/19 12:24:58;;;;;;;;;;;;;;;21.95;24.31;103373.11;103355;1322;60538;-85
2022/03/19 12:27:32;;;;;;;;;;;;;;;21.95;24.22;103371.69;103360;1323;60519;-86
2022/03/19 12:30:07;;;;;;;;;;;;;;;21.95;24.34;103368.06;103269;1323;72862;-86
2022/03/19 12:33:08;;;;;;;;;;;;;;;21.95;24.21;103366.83;103268;1323;75029;-85
2022/03/19 12:35:58;;;;;;;;;;;;;;;21.95;24.20;103371.66;103254;1323;61304;-86
2022/03/19 12:38:25;;;;;;;;;;;;;;;21.96;24.39;103372.73;103300;1322;60536;-84
2022/03/19 12:41:24;;;;;;;;;;;;;;;21.95;24.28;103361.62;103274;1323;73954;-85
2022/03/19 12:44:10;;;;;;;;;;;;;;;21.95;24.36;103365.04;103769;1318;74976;-85
2022/03/19 12:46:48;;;;;;;;;;;;;;;21.95;24.21;103363.95;103641;1319;61117;-85
2022/03/19 12:49:33;;;;;;;;;;;;;;;21.96;24.44;103359.64;103792;1318;59673;-86
2022/03/19 12:52:25;;;;;;;;;;;;;;;21.96;24.34;103367.86;103653;1320;72895;-82
2022/03/19 12:55:00;;;;;;;;;;;;;;;21.96;24.31;103361.98;103930;1318;74017;-82
2022/03/19 12:58:07;;;;;;;;;;;;;;;21.96;24.33;103361.95;103654;1319;60377;-87
2022/03/19 13:00:35;;;;;;;;;;;;;;;21.96;24.37;103360.34;103734;1318;61043;-85
2022/03/19 13:03:44;;;;;;;;;;;;;;;;;;;;;
2022/03/19 13:06:36;;;;;;;;;;;;;;;21.98;24.35;103353.83;103270;1324;74219;-84
2022/03/19 13:09:37;;;;;;;;;;;;;;;21.97;24.45;103347.56;103273;1322;60425;-81
2022/03/19 13:12:26;;;;;;;;;;;;;;;21.98;24.39;103349.87;103292;1324;61413;-88
2022/03/19 13:14:58;;;;;;;;;;;;;;;21.98;24.21;103347.71;102764;1329;72712;-82
2022/03/19 13:17:47;;;;;;;;;;;;;;;21.99;24.34;103343.75;102736;1329;73148;-86
2022/03/19 13:20:42;;;;;;;;;;;;;;;21.99;24.35;103342.68;102823;1329;61210;-84
2022/03/19 13:23:21;;;;;;;;;;;;;;;22.00;24.47;103338.34;103025;1325;60943;-85
2022/03/19 13:25:55;;;;;;;;;;;;;;;21.99;24.34;103332.81;102812;1326;74010;-83
2022/03/19 13:29:22;;;;;;;;;;;;;;;21.99;24.39;103331.19;102954;1325;75512;-87
2022/03/19 13:32:06;;;;;;;;;;;;;;;22.00;24.44;103331.52;103013;1325;60497;-84
2022/03/19 13:34:57;;;;;;;;;;;;;;;22.00;24.26;103324.33;102994;1326;60747;-85
2022/03/19 13:37:43;;;;;;;;;;;;;;;22.02;24.37;103320.86;102847;1326;73983;-82
2022/03/19 13:40:19;;;;;;;;;;;;;;;;;;;;;
2022/03/19 13:43:05;;;;;;;;;;;;;;;22.02;24.32;103315.29;103185;1322;60526;-87
2022/03/19 13:45:50;;;;;;;;;;;;;;;22.03;24.46;103312.59;103337;1323;62067;-80
2022/03/19 13:48:48;;;;;;;;;;;;;;;22.03;24.43;103311.66;103339;1322;74100;-84
2022/03/19 13:51:29;;;;;;;;;;;;;;;;;;;;;
2022/03/19 13:54:16;;;;;;;;;;;;;;;22.05;24.40;103301.05;104262;1315;60485;-84
2022/03/19 13:57:14;;;;;;;;;;;;;;;22.04;24.33;103302.31;104131;1314;60554;-81
2022/03/19 14:00:06;;;;;;;;;;;;;;;22.05;24.69;103308.04;103913;1315;73807;-85
2022/03/19 14:02:47;;;;;;;;;;;;;;;22.05;24.53;103300.31;104246;1315;74925;-86
2022/03/19 14:05:25;;;;;;;;;;;;;;;22.05;24.66;103297.98;104261;1315;60476;-86
2022/03/19 14:08:04;;;;;;;;;;;;;;;;;;;;;
2022/03/19 14:10:51;;;;;;;;;;;;;;;22.07;24.49;103303.29;104281;1314;72882;-80
2022/03/19 14:13:30;;;;;;;;;;;;;;;;;;;;;
2022/03/19 14:16:38;;;;;;;;;;;;;;;22.07;24.47;103299.70;104328;1315;60392;-83
2022/03/19 14:19:27;;;;;;;;;;;;;;;22.07;24.53;103300.79;104185;1315;61568;-83
2022/03/19 14:22:01;;;;;;;;;;;;;;;22.07;24.57;103299.35;104298;1315;73245;-86
2022/03/19 14:24:54;;;;;;;;;;;;;;;22.06;24.47;103295.23;104243;1315;74601;-85
2022/03/19 14:27:40;;;;;;;;;;;;;;;22.06;24.36;103296.13;103650;1319;60612;-85
2022/03/19 14:30:35;;;;;;;;;;;;;;;;;;;;;
2022/03/19 14:33:25;;;;;;;;;;;;;;;22.07;24.32;103286.98;103023;1323;72958;-88
2022/03/19 14:36:13;;;;;;;;;;;;;;;22.07;24.27;103280.16;103044;1322;75445;-88